sensor_id;sensor_type;location;lat;lon;timestamp;P1;durP1;ratioP1;P2;durP2;ratioP2
38609;SDS011;24367;51.640;9.566;2023-07-02T00:01:22;2.38;;;1.70;;
38609;SDS011;24367;51.640;9.566;2023-07-02T00:03:49;2.15;;;1.33;;
38609;SDS011;24367;51.640;9.566;2023-07-02T00:06:15;2.10;;;1.50;;
38609;SDS011;24367;51.640;9.566;2023-07-02T00:08:42;2.83;;;1.50;;
38609;SDS011;24367;51.640;9.566;2023-07-02T00:11:10;1.90;;;1.17;;
38609;SDS011;24367;51.640;9.566;2023-07-02T00:13:37;2.30;;;1.40;;
38609;SDS011;24367;51.640;9.566;2023-07-02T00:16:04;1.60;;;1.27;;
38609;SDS011;24367;51.640;9.566;2023-07-02T00:18:30;2.35;;;1.40;;
38609;SDS011;24367;51.640;9.566;2023-07-02T00:20:59;1.85;;;1.15;;
38609;SDS011;24367;51.640;9.566;2023-07-02T00:23:25;2.05;;;1.40;;
38609;SDS011;24367;51.640;9.566;2023-07-02T00:25:52;4.18;;;1.80;;
38609;SDS011;24367;51.640;9.566;2023-07-02T00:28:19;2.30;;;1.40;;
38609;SDS011;24367;51.640;9.566;2023-07-02T00:30:46;3.30;;;1.30;;
38609;SDS011;24367;51.640;9.566;2023-07-02T00:33:12;2.10;;;1.30;;
38609;SDS011;24367;51.640;9.566;2023-07-02T00:35:39;3.08;;;1.58;;
38609;SDS011;24367;51.640;9.566;2023-07-02T00:38:05;2.40;;;1.45;;
38609;SDS011;24367;51.640;9.566;2023-07-02T00:40:31;2.83;;;1.30;;
38609;SDS011;24367;51.640;9.566;2023-07-02T00:42:58;5.50;;;1.60;;
38609;SDS011;24367;51.640;9.566;2023-07-02T00:45:25;3.03;;;1.73;;
38609;SDS011;24367;51.640;9.566;2023-07-02T00:47:53;2.40;;;1.30;;
38609;SDS011;24367;51.640;9.566;2023-07-02T00:50:20;1.90;;;1.42;;
38609;SDS011;24367;51.640;9.566;2023-07-02T00:52:48;2.13;;;1.60;;
38609;SDS011;24367;51.640;9.566;2023-07-02T00:55:15;2.60;;;1.60;;
38609;SDS011;24367;51.640;9.566;2023-07-02T00:57:41;1.73;;;1.20;;
38609;SDS011;24367;51.640;9.566;2023-07-02T01:00:11;2.85;;;1.20;;
38609;SDS011;24367;51.640;9.566;2023-07-02T01:02:39;2.42;;;1.23;;
38609;SDS011;24367;51.640;9.566;2023-07-02T01:05:09;2.90;;;1.50;;
38609;SDS011;24367;51.640;9.566;2023-07-02T01:07:35;2.20;;;1.50;;
38609;SDS011;24367;51.640;9.566;2023-07-02T01:10:02;3.10;;;1.52;;
38609;SDS011;24367;51.640;9.566;2023-07-02T01:12:28;3.67;;;1.60;;
38609;SDS011;24367;51.640;9.566;2023-07-02T01:14:56;3.83;;;1.67;;
38609;SDS011;24367;51.640;9.566;2023-07-02T01:17:24;4.75;;;1.75;;
38609;SDS011;24367;51.640;9.566;2023-07-02T01:19:53;3.47;;;1.95;;
38609;SDS011;24367;51.640;9.566;2023-07-02T01:22:25;4.47;;;1.98;;
38609;SDS011;24367;51.640;9.566;2023-07-02T01:24:53;3.03;;;2.00;;
38609;SDS011;24367;51.640;9.566;2023-07-02T01:27:20;2.70;;;1.83;;
38609;SDS011;24367;51.640;9.566;2023-07-02T01:29:47;3.15;;;1.88;;
38609;SDS011;24367;51.640;9.566;2023-07-02T01:32:17;5.22;;;2.22;;
38609;SDS011;24367;51.640;9.566;2023-07-02T01:34:44;3.17;;;1.92;;
38609;SDS011;24367;51.640;9.566;2023-07-02T01:37:15;2.40;;;1.77;;
38609;SDS011;24367;51.640;9.566;2023-07-02T01:39:41;3.30;;;2.17;;
38609;SDS011;24367;51.640;9.566;2023-07-02T01:42:08;7.32;;;2.38;;
38609;SDS011;24367;51.640;9.566;2023-07-02T01:44:36;2.85;;;2.13;;
38609;SDS011;24367;51.640;9.566;2023-07-02T01:47:02;4.80;;;2.45;;
38609;SDS011;24367;51.640;9.566;2023-07-02T01:49:29;3.47;;;2.30;;
38609;SDS011;24367;51.640;9.566;2023-07-02T01:51:56;5.35;;;2.30;;
38609;SDS011;24367;51.640;9.566;2023-07-02T01:54:25;3.63;;;2.72;;
38609;SDS011;24367;51.640;9.566;2023-07-02T01:56:52;3.03;;;2.40;;
38609;SDS011;24367;51.640;9.566;2023-07-02T01:59:19;3.53;;;2.22;;
38609;SDS011;24367;51.640;9.566;2023-07-02T02:01:46;3.30;;;1.80;;
38609;SDS011;24367;51.640;9.566;2023-07-02T02:04:13;3.95;;;1.77;;
38609;SDS011;24367;51.640;9.566;2023-07-02T02:06:39;3.95;;;2.50;;
38609;SDS011;24367;51.640;9.566;2023-07-02T02:09:07;4.90;;;2.50;;
38609;SDS011;24367;51.640;9.566;2023-07-02T02:11:37;3.75;;;2.40;;
38609;SDS011;24367;51.640;9.566;2023-07-02T02:14:05;3.25;;;2.00;;
38609;SDS011;24367;51.640;9.566;2023-07-02T02:16:31;5.47;;;2.20;;
38609;SDS011;24367;51.640;9.566;2023-07-02T02:18:58;3.63;;;2.40;;
38609;SDS011;24367;51.640;9.566;2023-07-02T02:21:25;4.88;;;2.40;;
38609;SDS011;24367;51.640;9.566;2023-07-02T02:23:51;3.97;;;2.65;;
38609;SDS011;24367;51.640;9.566;2023-07-02T02:26:18;4.05;;;2.38;;
38609;SDS011;24367;51.640;9.566;2023-07-02T02:28:48;3.15;;;2.67;;
38609;SDS011;24367;51.640;9.566;2023-07-02T02:31:14;4.18;;;2.70;;
38609;SDS011;24367;51.640;9.566;2023-07-02T02:33:41;3.15;;;2.17;;
38609;SDS011;24367;51.640;9.566;2023-07-02T02:36:07;3.42;;;2.30;;
38609;SDS011;24367;51.640;9.566;2023-07-02T02:38:34;3.80;;;2.70;;
38609;SDS011;24367;51.640;9.566;2023-07-02T02:41:03;2.75;;;2.20;;
38609;SDS011;24367;51.640;9.566;2023-07-02T02:43:33;3.25;;;2.50;;
38609;SDS011;24367;51.640;9.566;2023-07-02T02:46:02;5.35;;;2.78;;
38609;SDS011;24367;51.640;9.566;2023-07-02T02:48:28;3.67;;;2.40;;
38609;SDS011;24367;51.640;9.566;2023-07-02T02:50:54;4.32;;;2.50;;
38609;SDS011;24367;51.640;9.566;2023-07-02T02:53:21;3.63;;;2.90;;
38609;SDS011;24367;51.640;9.566;2023-07-02T02:55:47;6.45;;;3.20;;
38609;SDS011;24367;51.640;9.566;2023-07-02T02:58:14;3.28;;;2.60;;
38609;SDS011;24367;51.640;9.566;2023-07-02T03:00:40;4.15;;;3.25;;
38609;SDS011;24367;51.640;9.566;2023-07-02T03:03:11;3.95;;;2.60;;
38609;SDS011;24367;51.640;9.566;2023-07-02T03:05:38;4.57;;;2.65;;
38609;SDS011;24367;51.640;9.566;2023-07-02T03:08:05;3.75;;;2.70;;
38609;SDS011;24367;51.640;9.566;2023-07-02T03:10:31;5.65;;;2.80;;
38609;SDS011;24367;51.640;9.566;2023-07-02T03:12:58;3.85;;;2.65;;
38609;SDS011;24367;51.640;9.566;2023-07-02T03:15:24;3.88;;;2.60;;
38609;SDS011;24367;51.640;9.566;2023-07-02T03:17:50;4.82;;;2.80;;
38609;SDS011;24367;51.640;9.566;2023-07-02T03:20:18;4.25;;;2.70;;
38609;SDS011;24367;51.640;9.566;2023-07-02T03:22:44;3.10;;;2.25;;
38609;SDS011;24367;51.640;9.566;2023-07-02T03:25:11;4.25;;;2.95;;
38609;SDS011;24367;51.640;9.566;2023-07-02T03:27:37;4.13;;;2.90;;
38609;SDS011;24367;51.640;9.566;2023-07-02T03:30:04;4.90;;;2.80;;
38609;SDS011;24367;51.640;9.566;2023-07-02T03:32:32;4.80;;;2.72;;
38609;SDS011;24367;51.640;9.566;2023-07-02T03:34:58;5.68;;;2.63;;
38609;SDS011;24367;51.640;9.566;2023-07-02T03:37:26;5.35;;;2.78;;
38609;SDS011;24367;51.640;9.566;2023-07-02T03:39:52;4.10;;;2.80;;
38609;SDS011;24367;51.640;9.566;2023-07-02T03:42:18;4.32;;;2.90;;
38609;SDS011;24367;51.640;9.566;2023-07-02T03:44:45;7.50;;;3.33;;
38609;SDS011;24367;51.640;9.566;2023-07-02T03:47:11;4.50;;;2.63;;
38609;SDS011;24367;51.640;9.566;2023-07-02T03:49:41;5.95;;;2.90;;
38609;SDS011;24367;51.640;9.566;2023-07-02T03:52:07;5.78;;;2.38;;
38609;SDS011;24367;51.640;9.566;2023-07-02T03:54:35;7.05;;;2.60;;
38609;SDS011;24367;51.640;9.566;2023-07-02T03:57:02;5.80;;;2.65;;
38609;SDS011;24367;51.640;9.566;2023-07-02T03:59:28;4.00;;;2.45;;
38609;SDS011;24367;51.640;9.566;2023-07-02T04:01:54;3.00;;;2.42;;
38609;SDS011;24367;51.640;9.566;2023-07-02T04:04:21;7.07;;;3.03;;
38609;SDS011;24367;51.640;9.566;2023-07-02T04:06:47;4.82;;;2.58;;
38609;SDS011;24367;51.640;9.566;2023-07-02T04:09:14;3.65;;;2.25;;
38609;SDS011;24367;51.640;9.566;2023-07-02T04:11:41;5.43;;;2.53;;
38609;SDS011;24367;51.640;9.566;2023-07-02T04:14:08;6.13;;;2.90;;
38609;SDS011;24367;51.640;9.566;2023-07-02T04:16:34;4.38;;;2.20;;
38609;SDS011;24367;51.640;9.566;2023-07-02T04:19:00;4.43;;;2.30;;
38609;SDS011;24367;51.640;9.566;2023-07-02T04:21:27;3.13;;;2.50;;
38609;SDS011;24367;51.640;9.566;2023-07-02T04:23:53;4.88;;;2.53;;
38609;SDS011;24367;51.640;9.566;2023-07-02T04:26:20;3.83;;;2.45;;
38609;SDS011;24367;51.640;9.566;2023-07-02T04:28:47;3.20;;;2.10;;
38609;SDS011;24367;51.640;9.566;2023-07-02T04:31:14;6.20;;;2.70;;
38609;SDS011;24367;51.640;9.566;2023-07-02T04:33:40;3.78;;;2.08;;
38609;SDS011;24367;51.640;9.566;2023-07-02T04:36:07;4.35;;;2.40;;
38609;SDS011;24367;51.640;9.566;2023-07-02T04:38:34;3.45;;;1.92;;
38609;SDS011;24367;51.640;9.566;2023-07-02T04:41:00;2.92;;;2.00;;
38609;SDS011;24367;51.640;9.566;2023-07-02T04:43:30;4.47;;;2.28;;
38609;SDS011;24367;51.640;9.566;2023-07-02T04:45:57;4.13;;;2.20;;
38609;SDS011;24367;51.640;9.566;2023-07-02T04:48:24;6.18;;;2.22;;
38609;SDS011;24367;51.640;9.566;2023-07-02T04:50:50;6.00;;;2.20;;
38609;SDS011;24367;51.640;9.566;2023-07-02T04:53:17;4.05;;;1.95;;
38609;SDS011;24367;51.640;9.566;2023-07-02T04:55:43;5.88;;;2.13;;
38609;SDS011;24367;51.640;9.566;2023-07-02T04:58:10;5.32;;;2.50;;
38609;SDS011;24367;51.640;9.566;2023-07-02T05:00:36;3.50;;;2.00;;
38609;SDS011;24367;51.640;9.566;2023-07-02T05:03:04;4.25;;;2.25;;
38609;SDS011;24367;51.640;9.566;2023-07-02T05:05:30;3.67;;;2.05;;
38609;SDS011;24367;51.640;9.566;2023-07-02T05:07:57;3.80;;;2.10;;
38609;SDS011;24367;51.640;9.566;2023-07-02T05:10:23;3.50;;;1.83;;
38609;SDS011;24367;51.640;9.566;2023-07-02T05:12:50;4.35;;;1.98;;
38609;SDS011;24367;51.640;9.566;2023-07-02T05:15:16;4.18;;;2.10;;
38609;SDS011;24367;51.640;9.566;2023-07-02T05:17:42;5.40;;;1.70;;
38609;SDS011;24367;51.640;9.566;2023-07-02T05:20:11;2.67;;;1.67;;
38609;SDS011;24367;51.640;9.566;2023-07-02T05:22:37;5.30;;;2.17;;
38609;SDS011;24367;51.640;9.566;2023-07-02T05:25:04;2.72;;;1.95;;
38609;SDS011;24367;51.640;9.566;2023-07-02T05:27:31;4.45;;;2.00;;
38609;SDS011;24367;51.640;9.566;2023-07-02T05:29:57;2.70;;;1.80;;
38609;SDS011;24367;51.640;9.566;2023-07-02T05:32:23;3.67;;;1.92;;
38609;SDS011;24367;51.640;9.566;2023-07-02T05:34:50;4.93;;;1.45;;
38609;SDS011;24367;51.640;9.566;2023-07-02T05:37:18;2.97;;;1.92;;
38609;SDS011;24367;51.640;9.566;2023-07-02T05:39:45;4.78;;;2.05;;
38609;SDS011;24367;51.640;9.566;2023-07-02T05:42:11;3.78;;;1.80;;
38609;SDS011;24367;51.640;9.566;2023-07-02T05:44:37;3.83;;;2.08;;
38609;SDS011;24367;51.640;9.566;2023-07-02T05:47:04;5.78;;;2.25;;
38609;SDS011;24367;51.640;9.566;2023-07-02T05:49:30;6.93;;;2.50;;
38609;SDS011;24367;51.640;9.566;2023-07-02T05:51:56;5.50;;;2.60;;
38609;SDS011;24367;51.640;9.566;2023-07-02T05:54:24;5.60;;;2.70;;
38609;SDS011;24367;51.640;9.566;2023-07-02T05:56:50;5.30;;;2.42;;
38609;SDS011;24367;51.640;9.566;2023-07-02T05:59:17;4.18;;;2.53;;
38609;SDS011;24367;51.640;9.566;2023-07-02T06:01:44;6.57;;;2.97;;
38609;SDS011;24367;51.640;9.566;2023-07-02T06:04:10;4.30;;;2.78;;
38609;SDS011;24367;51.640;9.566;2023-07-02T06:06:37;4.47;;;2.75;;
38609;SDS011;24367;51.640;9.566;2023-07-02T06:09:03;5.45;;;3.30;;
38609;SDS011;24367;51.640;9.566;2023-07-02T06:11:31;5.65;;;3.30;;
38609;SDS011;24367;51.640;9.566;2023-07-02T06:13:57;5.05;;;3.05;;
38609;SDS011;24367;51.640;9.566;2023-07-02T06:16:24;6.95;;;4.00;;
38609;SDS011;24367;51.640;9.566;2023-07-02T06:18:51;7.47;;;3.78;;
38609;SDS011;24367;51.640;9.566;2023-07-02T06:21:17;7.00;;;3.80;;
38609;SDS011;24367;51.640;9.566;2023-07-02T06:23:44;10.75;;;3.78;;
38609;SDS011;24367;51.640;9.566;2023-07-02T06:26:11;5.43;;;3.13;;
38609;SDS011;24367;51.640;9.566;2023-07-02T06:28:39;7.15;;;4.25;;
38609;SDS011;24367;51.640;9.566;2023-07-02T06:31:05;7.03;;;4.53;;
38609;SDS011;24367;51.640;9.566;2023-07-02T06:33:32;7.60;;;4.53;;
38609;SDS011;24367;51.640;9.566;2023-07-02T06:35:58;5.88;;;4.13;;
38609;SDS011;24367;51.640;9.566;2023-07-02T06:38:25;7.32;;;4.80;;
38609;SDS011;24367;51.640;9.566;2023-07-02T06:40:51;9.15;;;5.50;;
38609;SDS011;24367;51.640;9.566;2023-07-02T06:43:17;11.18;;;6.03;;
38609;SDS011;24367;51.640;9.566;2023-07-02T06:45:45;8.27;;;5.93;;
38609;SDS011;24367;51.640;9.566;2023-07-02T06:48:11;11.10;;;6.75;;
38609;SDS011;24367;51.640;9.566;2023-07-02T06:50:42;9.70;;;7.00;;
38609;SDS011;24367;51.640;9.566;2023-07-02T06:53:09;11.07;;;6.85;;
38609;SDS011;24367;51.640;9.566;2023-07-02T06:55:35;10.00;;;7.28;;
38609;SDS011;24367;51.640;9.566;2023-07-02T06:58:03;13.10;;;8.20;;
38609;SDS011;24367;51.640;9.566;2023-07-02T07:00:31;9.90;;;7.28;;
38609;SDS011;24367;51.640;9.566;2023-07-02T07:02:58;11.93;;;8.13;;
38609;SDS011;24367;51.640;9.566;2023-07-02T07:05:25;12.70;;;8.82;;
38609;SDS011;24367;51.640;9.566;2023-07-02T07:07:51;11.75;;;8.55;;
38609;SDS011;24367;51.640;9.566;2023-07-02T07:10:18;15.85;;;9.55;;
38609;SDS011;24367;51.640;9.566;2023-07-02T07:12:45;16.00;;;9.55;;
38609;SDS011;24367;51.640;9.566;2023-07-02T07:15:11;14.00;;;9.25;;
38609;SDS011;24367;51.640;9.566;2023-07-02T07:17:38;15.40;;;9.30;;
38609;SDS011;24367;51.640;9.566;2023-07-02T07:20:06;22.60;;;9.82;;
38609;SDS011;24367;51.640;9.566;2023-07-02T07:22:33;15.55;;;10.00;;
38609;SDS011;24367;51.640;9.566;2023-07-02T07:24:59;16.48;;;9.63;;
38609;SDS011;24367;51.640;9.566;2023-07-02T07:27:26;14.13;;;9.07;;
38609;SDS011;24367;51.640;9.566;2023-07-02T07:29:52;18.38;;;9.57;;
38609;SDS011;24367;51.640;9.566;2023-07-02T07:32:19;16.95;;;9.27;;
38609;SDS011;24367;51.640;9.566;2023-07-02T07:34:46;14.63;;;8.60;;
38609;SDS011;24367;51.640;9.566;2023-07-02T07:37:14;14.05;;;8.88;;
38609;SDS011;24367;51.640;9.566;2023-07-02T07:39:40;14.80;;;8.63;;
38609;SDS011;24367;51.640;9.566;2023-07-02T07:42:06;11.35;;;8.73;;
38609;SDS011;24367;51.640;9.566;2023-07-02T07:44:33;12.48;;;8.65;;
38609;SDS011;24367;51.640;9.566;2023-07-02T07:46:59;12.15;;;8.50;;
38609;SDS011;24367;51.640;9.566;2023-07-02T07:49:25;11.60;;;8.27;;
38609;SDS011;24367;51.640;9.566;2023-07-02T07:51:52;14.10;;;8.90;;
38609;SDS011;24367;51.640;9.566;2023-07-02T07:54:20;11.45;;;8.45;;
38609;SDS011;24367;51.640;9.566;2023-07-02T07:56:47;13.95;;;8.65;;
38609;SDS011;24367;51.640;9.566;2023-07-02T07:59:13;11.20;;;8.25;;
38609;SDS011;24367;51.640;9.566;2023-07-02T08:01:39;12.05;;;8.25;;
38609;SDS011;24367;51.640;9.566;2023-07-02T08:04:06;11.40;;;7.95;;
38609;SDS011;24367;51.640;9.566;2023-07-02T08:06:32;14.40;;;8.82;;
38609;SDS011;24367;51.640;9.566;2023-07-02T08:08:58;16.52;;;8.77;;
38609;SDS011;24367;51.640;9.566;2023-07-02T08:11:26;12.38;;;7.93;;
38609;SDS011;24367;51.640;9.566;2023-07-02T08:13:52;11.95;;;8.40;;
38609;SDS011;24367;51.640;9.566;2023-07-02T08:16:19;15.93;;;9.23;;
38609;SDS011;24367;51.640;9.566;2023-07-02T08:18:45;15.10;;;9.13;;
38609;SDS011;24367;51.640;9.566;2023-07-02T08:21:11;17.17;;;9.07;;
38609;SDS011;24367;51.640;9.566;2023-07-02T08:23:38;14.85;;;9.38;;
38609;SDS011;24367;51.640;9.566;2023-07-02T08:26:04;13.50;;;9.27;;
38609;SDS011;24367;51.640;9.566;2023-07-02T08:28:32;11.82;;;8.77;;
38609;SDS011;24367;51.640;9.566;2023-07-02T08:30:58;12.90;;;8.73;;
38609;SDS011;24367;51.640;9.566;2023-07-02T08:33:25;11.77;;;8.85;;
38609;SDS011;24367;51.640;9.566;2023-07-02T08:35:51;14.80;;;9.05;;
38609;SDS011;24367;51.640;9.566;2023-07-02T08:38:17;13.85;;;9.77;;
38609;SDS011;24367;51.640;9.566;2023-07-02T08:40:44;16.42;;;9.05;;
38609;SDS011;24367;51.640;9.566;2023-07-02T08:43:10;12.40;;;8.68;;
38609;SDS011;24367;51.640;9.566;2023-07-02T08:45:39;15.13;;;10.32;;
38609;SDS011;24367;51.640;9.566;2023-07-02T08:48:06;13.00;;;9.20;;
38609;SDS011;24367;51.640;9.566;2023-07-02T08:50:33;12.45;;;8.73;;
38609;SDS011;24367;51.640;9.566;2023-07-02T08:53:00;14.55;;;8.35;;
38609;SDS011;24367;51.640;9.566;2023-07-02T08:55:26;13.55;;;9.00;;
38609;SDS011;24367;51.640;9.566;2023-07-02T08:57:55;16.55;;;9.45;;
38609;SDS011;24367;51.640;9.566;2023-07-02T09:00:25;13.50;;;9.55;;
38609;SDS011;24367;51.640;9.566;2023-07-02T09:02:53;14.45;;;9.13;;
38609;SDS011;24367;51.640;9.566;2023-07-02T09:05:19;14.18;;;9.48;;
38609;SDS011;24367;51.640;9.566;2023-07-02T09:07:45;13.27;;;9.35;;
38609;SDS011;24367;51.640;9.566;2023-07-02T09:10:12;13.30;;;9.25;;
38609;SDS011;24367;51.640;9.566;2023-07-02T09:12:51;15.10;;;9.02;;
38609;SDS011;24367;51.640;9.566;2023-07-02T09:15:17;11.88;;;8.88;;
38609;SDS011;24367;51.640;9.566;2023-07-02T09:17:45;11.52;;;9.10;;
38609;SDS011;24367;51.640;9.566;2023-07-02T09:20:13;10.90;;;8.27;;
38609;SDS011;24367;51.640;9.566;2023-07-02T09:22:40;12.10;;;9.25;;
38609;SDS011;24367;51.640;9.566;2023-07-02T09:25:06;12.30;;;9.02;;
38609;SDS011;24367;51.640;9.566;2023-07-02T09:27:35;13.05;;;9.45;;
38609;SDS011;24367;51.640;9.566;2023-07-02T09:30:05;12.05;;;9.48;;
38609;SDS011;24367;51.640;9.566;2023-07-02T09:32:33;13.70;;;9.10;;
38609;SDS011;24367;51.640;9.566;2023-07-02T09:34:59;12.73;;;8.90;;
38609;SDS011;24367;51.640;9.566;2023-07-02T09:37:27;27.88;;;9.15;;
38609;SDS011;24367;51.640;9.566;2023-07-02T09:39:54;30.90;;;10.85;;
38609;SDS011;24367;51.640;9.566;2023-07-02T09:42:21;17.35;;;10.05;;
38609;SDS011;24367;51.640;9.566;2023-07-02T09:44:47;13.90;;;9.43;;
38609;SDS011;24367;51.640;9.566;2023-07-02T09:47:16;12.60;;;9.45;;
38609;SDS011;24367;51.640;9.566;2023-07-02T09:49:45;18.05;;;10.77;;
38609;SDS011;24367;51.640;9.566;2023-07-02T09:52:15;14.80;;;10.02;;
38609;SDS011;24367;51.640;9.566;2023-07-02T09:54:44;16.23;;;10.82;;
38609;SDS011;24367;51.640;9.566;2023-07-02T09:57:10;13.65;;;10.02;;
38609;SDS011;24367;51.640;9.566;2023-07-02T09:59:37;17.35;;;10.68;;
38609;SDS011;24367;51.640;9.566;2023-07-02T10:02:04;15.85;;;9.38;;
38609;SDS011;24367;51.640;9.566;2023-07-02T10:04:39;13.15;;;10.55;;
38609;SDS011;24367;51.640;9.566;2023-07-02T10:07:06;13.68;;;9.60;;
38609;SDS011;24367;51.640;9.566;2023-07-02T10:09:36;15.10;;;10.35;;
38609;SDS011;24367;51.640;9.566;2023-07-02T10:12:15;17.08;;;10.80;;
38609;SDS011;24367;51.640;9.566;2023-07-02T10:14:43;18.45;;;10.32;;
38609;SDS011;24367;51.640;9.566;2023-07-02T10:17:10;15.40;;;10.52;;
38609;SDS011;24367;51.640;9.566;2023-07-02T10:19:36;14.07;;;10.30;;
38609;SDS011;24367;51.640;9.566;2023-07-02T10:22:03;14.77;;;10.63;;
38609;SDS011;24367;51.640;9.566;2023-07-02T10:24:32;17.38;;;11.05;;
38609;SDS011;24367;51.640;9.566;2023-07-02T10:26:59;17.58;;;10.73;;
38609;SDS011;24367;51.640;9.566;2023-07-02T10:29:29;15.13;;;11.25;;
38609;SDS011;24367;51.640;9.566;2023-07-02T10:31:56;17.17;;;11.40;;
38609;SDS011;24367;51.640;9.566;2023-07-02T10:34:29;15.07;;;10.68;;
38609;SDS011;24367;51.640;9.566;2023-07-02T10:36:56;13.68;;;10.10;;
38609;SDS011;24367;51.640;9.566;2023-07-02T10:39:23;14.50;;;10.68;;
38609;SDS011;24367;51.640;9.566;2023-07-02T10:41:49;16.92;;;10.93;;
38609;SDS011;24367;51.640;9.566;2023-07-02T10:44:16;14.77;;;10.93;;
38609;SDS011;24367;51.640;9.566;2023-07-02T10:46:47;14.95;;;11.15;;
38609;SDS011;24367;51.640;9.566;2023-07-02T10:49:14;15.98;;;10.35;;
38609;SDS011;24367;51.640;9.566;2023-07-02T10:51:43;12.90;;;9.63;;
38609;SDS011;24367;51.640;9.566;2023-07-02T10:54:09;15.18;;;11.18;;
38609;SDS011;24367;51.640;9.566;2023-07-02T10:56:36;18.10;;;11.20;;
38609;SDS011;24367;51.640;9.566;2023-07-02T10:59:02;15.80;;;10.35;;
38609;SDS011;24367;51.640;9.566;2023-07-02T11:01:30;15.27;;;10.90;;
38609;SDS011;24367;51.640;9.566;2023-07-02T11:03:59;21.08;;;10.10;;
38609;SDS011;24367;51.640;9.566;2023-07-02T11:06:27;16.40;;;10.77;;
38609;SDS011;24367;51.640;9.566;2023-07-02T11:08:54;17.45;;;11.05;;
38609;SDS011;24367;51.640;9.566;2023-07-02T11:11:21;16.85;;;10.63;;
38609;SDS011;24367;51.640;9.566;2023-07-02T11:13:48;18.00;;;11.40;;
38609;SDS011;24367;51.640;9.566;2023-07-02T11:16:19;13.00;;;10.15;;
38609;SDS011;24367;51.640;9.566;2023-07-02T11:18:49;14.80;;;10.63;;
38609;SDS011;24367;51.640;9.566;2023-07-02T11:21:17;17.65;;;11.38;;
38609;SDS011;24367;51.640;9.566;2023-07-02T11:23:43;16.67;;;11.32;;
38609;SDS011;24367;51.640;9.566;2023-07-02T11:26:10;16.45;;;11.00;;
38609;SDS011;24367;51.640;9.566;2023-07-02T11:28:46;15.50;;;10.98;;
38609;SDS011;24367;51.640;9.566;2023-07-02T11:31:14;22.25;;;11.57;;
38609;SDS011;24367;51.640;9.566;2023-07-02T11:33:41;13.70;;;10.30;;
38609;SDS011;24367;51.640;9.566;2023-07-02T11:36:20;13.75;;;10.57;;
38609;SDS011;24367;51.640;9.566;2023-07-02T11:38:49;15.80;;;11.27;;
38609;SDS011;24367;51.640;9.566;2023-07-02T11:41:16;15.02;;;11.30;;
38609;SDS011;24367;51.640;9.566;2023-07-02T11:43:43;15.15;;;10.45;;
38609;SDS011;24367;51.640;9.566;2023-07-02T11:46:09;13.90;;;10.38;;
38609;SDS011;24367;51.640;9.566;2023-07-02T11:48:36;14.50;;;10.40;;
38609;SDS011;24367;51.640;9.566;2023-07-02T11:51:02;12.60;;;9.90;;
38609;SDS011;24367;51.640;9.566;2023-07-02T11:53:30;13.20;;;9.98;;
38609;SDS011;24367;51.640;9.566;2023-07-02T11:55:56;15.27;;;9.80;;
38609;SDS011;24367;51.640;9.566;2023-07-02T11:58:22;12.73;;;10.38;;
38609;SDS011;24367;51.640;9.566;2023-07-02T12:00:49;12.82;;;9.98;;
38609;SDS011;24367;51.640;9.566;2023-07-02T12:03:15;13.38;;;9.77;;
38609;SDS011;24367;51.640;9.566;2023-07-02T12:05:41;15.48;;;10.57;;
38609;SDS011;24367;51.640;9.566;2023-07-02T12:08:08;13.02;;;10.57;;
38609;SDS011;24367;51.640;9.566;2023-07-02T12:10:36;13.80;;;10.27;;
38609;SDS011;24367;51.640;9.566;2023-07-02T12:13:02;13.82;;;10.32;;
38609;SDS011;24367;51.640;9.566;2023-07-02T12:15:28;17.25;;;10.27;;
38609;SDS011;24367;51.640;9.566;2023-07-02T12:17:55;11.70;;;10.40;;
38609;SDS011;24367;51.640;9.566;2023-07-02T12:20:21;12.45;;;10.13;;
38609;SDS011;24367;51.640;9.566;2023-07-02T12:22:47;12.55;;;9.77;;
38609;SDS011;24367;51.640;9.566;2023-07-02T12:25:14;12.18;;;9.95;;
38609;SDS011;24367;51.640;9.566;2023-07-02T12:27:41;11.65;;;9.88;;
38609;SDS011;24367;51.640;9.566;2023-07-02T12:30:08;11.93;;;10.43;;
38609;SDS011;24367;51.640;9.566;2023-07-02T12:32:37;14.13;;;9.52;;
38609;SDS011;24367;51.640;9.566;2023-07-02T12:35:04;13.30;;;10.45;;
38609;SDS011;24367;51.640;9.566;2023-07-02T12:37:31;10.43;;;8.77;;
38609;SDS011;24367;51.640;9.566;2023-07-02T12:39:58;13.57;;;9.50;;
38609;SDS011;24367;51.640;9.566;2023-07-02T12:42:24;11.55;;;9.23;;
38609;SDS011;24367;51.640;9.566;2023-07-02T12:44:52;11.70;;;9.77;;
38609;SDS011;24367;51.640;9.566;2023-07-02T12:47:18;13.93;;;10.35;;
38609;SDS011;24367;51.640;9.566;2023-07-02T12:49:45;11.07;;;9.48;;
38609;SDS011;24367;51.640;9.566;2023-07-02T12:52:12;12.52;;;9.52;;
38609;SDS011;24367;51.640;9.566;2023-07-02T12:54:38;11.80;;;9.25;;
38609;SDS011;24367;51.640;9.566;2023-07-02T12:57:05;12.80;;;9.40;;
38609;SDS011;24367;51.640;9.566;2023-07-02T12:59:32;11.70;;;9.65;;
38609;SDS011;24367;51.640;9.566;2023-07-02T13:02:00;11.15;;;9.10;;
38609;SDS011;24367;51.640;9.566;2023-07-02T13:04:26;12.75;;;9.73;;
38609;SDS011;24367;51.640;9.566;2023-07-02T13:06:52;12.00;;;9.70;;
38609;SDS011;24367;51.640;9.566;2023-07-02T13:09:19;12.52;;;9.25;;
38609;SDS011;24367;51.640;9.566;2023-07-02T13:11:45;12.65;;;9.60;;
38609;SDS011;24367;51.640;9.566;2023-07-02T13:14:12;10.68;;;9.00;;
38609;SDS011;24367;51.640;9.566;2023-07-02T13:16:38;11.43;;;9.57;;
38609;SDS011;24367;51.640;9.566;2023-07-02T13:19:06;10.60;;;8.98;;
38609;SDS011;24367;51.640;9.566;2023-07-02T13:21:32;14.32;;;9.95;;
38609;SDS011;24367;51.640;9.566;2023-07-02T13:23:59;11.70;;;9.32;;
38609;SDS011;24367;51.640;9.566;2023-07-02T13:26:25;11.68;;;9.05;;
38609;SDS011;24367;51.640;9.566;2023-07-02T13:28:51;11.20;;;9.30;;
38609;SDS011;24367;51.640;9.566;2023-07-02T13:31:18;10.10;;;8.75;;
38609;SDS011;24367;51.640;9.566;2023-07-02T13:33:44;11.05;;;9.23;;
38609;SDS011;24367;51.640;9.566;2023-07-02T13:36:12;12.05;;;8.93;;
38609;SDS011;24367;51.640;9.566;2023-07-02T13:38:39;12.02;;;9.55;;
38609;SDS011;24367;51.640;9.566;2023-07-02T13:41:05;11.10;;;9.18;;
38609;SDS011;24367;51.640;9.566;2023-07-02T13:43:31;12.93;;;9.68;;
38609;SDS011;24367;51.640;9.566;2023-07-02T13:45:58;10.65;;;8.60;;
38609;SDS011;24367;51.640;9.566;2023-07-02T13:48:24;10.60;;;8.95;;
38609;SDS011;24367;51.640;9.566;2023-07-02T13:50:51;9.82;;;8.05;;
38609;SDS011;24367;51.640;9.566;2023-07-02T13:53:18;10.80;;;8.77;;
38609;SDS011;24367;51.640;9.566;2023-07-02T13:55:45;9.50;;;8.23;;
38609;SDS011;24367;51.640;9.566;2023-07-02T13:58:11;10.43;;;8.95;;
38609;SDS011;24367;51.640;9.566;2023-07-02T14:00:39;11.60;;;9.07;;
38609;SDS011;24367;51.640;9.566;2023-07-02T14:03:05;10.90;;;8.82;;
38609;SDS011;24367;51.640;9.566;2023-07-02T14:05:32;13.82;;;9.73;;
38609;SDS011;24367;51.640;9.566;2023-07-02T14:07:59;11.38;;;8.65;;
38609;SDS011;24367;51.640;9.566;2023-07-02T14:10:25;10.70;;;8.25;;
38609;SDS011;24367;51.640;9.566;2023-07-02T14:12:53;11.18;;;8.63;;
38609;SDS011;24367;51.640;9.566;2023-07-02T14:15:19;10.40;;;9.15;;
38609;SDS011;24367;51.640;9.566;2023-07-02T14:17:48;10.27;;;8.02;;
38609;SDS011;24367;51.640;9.566;2023-07-02T14:20:14;12.05;;;9.05;;
38609;SDS011;24367;51.640;9.566;2023-07-02T14:22:40;12.07;;;8.63;;
38609;SDS011;24367;51.640;9.566;2023-07-02T14:25:07;11.23;;;8.90;;
38609;SDS011;24367;51.640;9.566;2023-07-02T14:27:34;11.50;;;8.73;;
38609;SDS011;24367;51.640;9.566;2023-07-02T14:30:00;9.75;;;8.43;;
38609;SDS011;24367;51.640;9.566;2023-07-02T14:32:31;12.68;;;9.02;;
38609;SDS011;24367;51.640;9.566;2023-07-02T14:34:58;13.20;;;9.05;;
38609;SDS011;24367;51.640;9.566;2023-07-02T14:37:25;10.80;;;7.90;;